Time;durP1;ratioP1;P1;durP2;ratioP2;P2;SDS_P1;SDS_P2;PMS_P1;PMS_P2;Temp;Humidity;BMP_temperature;BMP_pressure;BME280_temperature;BME280_humidity;BME280_pressure;Samples;Min_cycle;Max_cycle;Signal;HPM_P1;HPM_P2
2022/11/08 00:02:09;;;;;;;6.35;1.90;;;;;;;16.37;58.37;100925.47;4949751;28;124260;-68
2022/11/08 00:04:37;;;;;;;5.97;1.55;;;;;;;16.35;58.34;100932.75;4949809;28;124069;-68
2022/11/08 00:15:21;;;;;;;9.45;1.90;;;;;;;16.26;58.09;100933.34;4951983;28;124721;-68
2022/11/08 00:17:48;;;;;;;9.00;2.20;;;;;;;16.22;58.02;100937.16;4954180;28;119409;-68
2022/11/08 00:20:15;;;;;;;7.68;2.08;;;;;;;16.15;58.17;100937.59;4950634;28;117876;-68
2022/11/08 00:22:42;;;;;;;6.47;2.38;;;;;;;16.11;58.16;100941.44;4953269;28;124055;-68
2022/11/08 00:25:09;;;;;;;6.90;2.20;;;;;;;16.07;58.24;100939.09;4949785;28;124309;-68
2022/11/08 00:27:36;;;;;;;8.48;2.08;;;;;;;16.03;58.40;100943.78;4952434;28;119162;-68
2022/11/08 00:30:04;;;;;;;4.97;2.20;;;;;;;16.01;58.45;100945.69;4950600;28;119034;-68
2022/11/08 00:32:31;;;;;;;7.13;2.30;;;;;;;15.98;58.46;100935.19;4948276;28;124562;-68
2022/11/08 00:34:58;;;;;;;6.80;2.05;;;;;;;15.95;58.64;100935.38;4948801;28;123893;-68
2022/11/08 00:37:25;;;;;;;6.45;2.25;;;;;;;15.92;58.63;100927.59;4950521;28;118291;-68
2022/11/08 00:39:52;;;;;;;4.63;2.08;;;;;;;15.89;58.65;100933.13;4955130;28;119337;-68
2022/11/08 00:42:19;;;;;;;6.28;2.10;;;;;;;15.88;58.81;100934.06;4948494;28;123786;-68
2022/11/08 00:44:46;;;;;;;5.53;1.80;;;;;;;15.85;58.67;100931.63;4966538;28;122723;-68
2022/11/08 00:47:13;;;;;;;5.45;2.00;;;;;;;15.81;58.80;100927.44;4946801;28;119958;-68
2022/11/08 00:49:40;;;;;;;7.65;1.77;;;;;;;15.80;58.96;100926.56;4946338;28;119648;-68
2022/11/08 00:52:08;;;;;;;6.43;1.75;;;;;;;15.77;58.81;100919.63;4949086;28;125263;-68
2022/11/08 00:54:35;;;;;;;10.07;2.15;;;;;;;15.74;58.95;100917.16;4951321;28;124715;-68
2022/11/08 00:57:02;;;;;;;7.55;1.90;;;;;;;15.71;58.99;100916.50;4951364;28;119356;-68
2022/11/08 00:59:29;;;;;;;7.13;2.20;;;;;;;15.69;59.10;100913.91;4968874;28;119420;-68
2022/11/08 01:01:56;;;;;;;8.93;2.30;;;;;;;15.67;59.07;100910.50;4948161;28;124026;-68
2022/11/08 01:04:23;;;;;;;9.50;1.98;;;;;;;15.66;59.13;100908.75;4954065;28;124919;-68
2022/11/08 01:06:50;;;;;;;6.13;2.13;;;;;;;15.66;59.25;100908.75;4949832;28;119396;-68
2022/11/08 01:09:17;;;;;;;6.55;2.10;;;;;;;15.65;59.31;100907.06;4950817;28;119205;-68
2022/11/08 01:11:46;;;;;;;4.93;1.90;;;;;;;15.63;59.29;100908.94;4947477;28;123833;-68
2022/11/08 01:14:14;;;;;;;6.97;1.80;;;;;;;15.62;59.47;100901.91;4961914;28;122742;-68
2022/11/08 01:16:41;;;;;;;4.40;1.83;;;;;;;15.63;59.45;100908.09;4946505;28;119681;-68
2022/11/08 01:19:08;;;;;;;8.02;1.95;;;;;;;15.64;59.70;100909.81;4949942;28;118143;-68
2022/11/08 01:21:35;;;;;;;6.57;2.05;;;;;;;15.63;59.67;100903.59;4953428;28;124079;-68
2022/11/08 01:24:03;;;;;;;7.35;1.98;;;;;;;15.64;59.56;100905.34;4953988;28;124644;-68
2022/11/08 01:26:30;;;;;;;7.85;1.85;;;;;;;15.64;59.81;100900.00;4952493;28;120123;-68
2022/11/08 01:28:57;;;;;;;6.55;2.00;;;;;;;15.65;59.56;100907.06;4952535;28;119197;-68
2022/11/08 01:31:29;;;;;;;4.22;1.98;;;;;;;15.64;59.75;100910.69;4951423;28;123583;-68
2022/11/08 01:33:57;;;;;;;8.07;1.95;;;;;;;15.65;59.62;100907.06;4947990;28;123667;-68
2022/11/08 01:36:27;;;;;;;6.63;1.70;;;;;;;15.65;59.78;100901.72;4950522;28;119477;-68
2022/11/08 01:38:55;;;;;;;8.15;1.92;;;;;;;15.65;59.64;100901.72;4951059;28;120471;-69
2022/11/08 01:41:24;;;;;;;6.13;2.08;;;;;;;15.64;59.77;100894.66;4951914;28;125070;-68
2022/11/08 01:43:56;;;;;;;6.25;1.80;;;;;;;15.63;59.69;100892.94;4955933;28;124859;-68
2022/11/08 01:46:31;;;;;;;13.13;2.40;;;;;;;15.62;59.87;100891.22;4953010;28;119237;-68
2022/11/08 01:49:17;;;;;;;7.00;1.90;;;;;;;15.62;59.69;100891.22;4957022;28;119018;-68
2022/11/08 01:52:09;;;;;;;6.82;1.73;;;;;;;15.63;59.86;100892.09;4960420;28;122692;-68
2022/11/08 01:54:57;;;;;;;6.65;1.67;;;;;;;15.62;59.93;100875.22;4962259;28;124140;-68
2022/11/08 01:57:32;;;;;;;6.55;1.88;;;;;;;15.61;59.68;100872.63;4958288;28;119901;-68
2022/11/08 02:00:01;;;;;;;5.10;1.67;;;;;;;15.60;59.71;100866.44;4956134;28;119448;-68
2022/11/08 02:02:35;;;;;;;7.10;1.90;;;;;;;15.59;59.64;100870.06;4952702;28;124663;-68
2022/11/08 02:05:05;;;;;;;8.48;2.28;;;;;;;15.58;59.66;100865.69;4952281;28;123848;-68
2022/11/08 02:07:33;;;;;;;6.72;2.10;;;;;;;15.57;59.80;100859.47;4950859;28;119381;-68
2022/11/08 02:10:01;;;;;;;7.60;1.75;;;;;;;15.57;59.71;100861.31;4954512;28;118734;-68
2022/11/08 02:12:28;;;;;;;8.23;2.10;;;;;;;15.56;60.07;100849.78;4953324;28;123844;-68
2022/11/08 02:14:56;;;;;;;9.13;2.33;;;;;;;15.56;59.76;100849.78;4951864;28;123786;-68
2022/11/08 02:17:23;;;;;;;6.68;2.17;;;;;;;15.56;59.75;100840.91;4949665;28;119074;-69
2022/11/08 02:19:50;;;;;;;7.80;1.80;;;;;;;15.56;59.81;100840.91;4951044;28;118862;-68
2022/11/08 02:22:31;;;;;;;5.45;1.70;;;;;;;15.55;59.82;100839.19;4953439;28;124174;-68
2022/11/08 02:24:59;;;;;;;6.53;1.80;;;;;;;15.51;59.69;100835.88;4952980;28;124508;-67
2022/11/08 02:27:26;;;;;;;5.72;2.05;;;;;;;15.50;59.70;100827.97;4965440;28;119409;-68
2022/11/08 02:29:54;;;;;;;6.75;1.85;;;;;;;15.48;59.69;100813.84;4954186;28;120929;-68
2022/11/08 02:32:22;;;;;;;7.03;2.08;;;;;;;15.46;59.74;100821.13;4949270;28;124028;-68
2022/11/08 02:34:56;;;;;;;6.40;1.67;;;;;;;15.43;59.75;100816.84;4953108;28;124166;-68
2022/11/08 02:37:24;;;;;;;4.90;2.15;;;;;;;15.43;59.83;100810.66;4950159;28;119648;-68
2022/11/08 02:39:51;;;;;;;10.13;2.42;;;;;;;15.43;59.82;100805.31;4952176;28;119227;-68
2022/11/08 02:42:19;;;;;;;5.20;2.10;;;;;;;15.41;59.82;100802.75;4954500;28;124323;-68
2022/11/08 02:44:47;;;;;;;5.30;1.83;;;;;;;15.40;59.80;100805.50;4951941;28;124268;-68
2022/11/08 02:47:14;;;;;;;7.88;1.80;;;;;;;15.37;59.81;100796.75;4950187;28;120001;-68
2022/11/08 02:49:41;;;;;;;6.97;1.90;;;;;;;15.36;59.93;100805.69;4954168;28;118771;-68
2022/11/08 02:52:09;;;;;;;5.88;1.90;;;;;;;15.33;60.00;100795.25;4948182;28;124507;-68
2022/11/08 02:54:36;;;;;;;5.90;2.13;;;;;;;15.32;59.96;100788.19;4953380;28;123910;-68
2022/11/08 02:57:03;;;;;;;6.00;2.10;;;;;;;15.32;59.94;100784.69;4949594;28;119682;-68
2022/11/08 02:59:30;;;;;;;5.80;1.98;;;;;;;15.29;60.07;100793.72;4952942;28;118790;-68
2022/11/08 03:01:57;;;;;;;7.80;2.58;;;;;;;15.28;59.87;100792.03;4949563;28;124244;-68
2022/11/08 03:04:24;;;;;;;7.25;2.08;;;;;;;15.27;60.01;100790.28;4949497;28;124137;-68
2022/11/08 03:06:51;;;;;;;6.88;2.05;;;;;;;15.27;59.92;100784.09;4948657;28;119452;-68
2022/11/08 03:09:18;;;;;;;7.07;2.00;;;;;;;15.26;59.96;100767.25;4951256;28;118555;-68
2022/11/08 03:11:45;;;;;;;7.70;2.13;;;;;;;15.25;60.05;100770.88;4951063;28;124344;-68
2022/11/08 03:14:12;;;;;;;4.82;2.00;;;;;;;15.25;60.10;100770.88;4951533;28;123725;-68
2022/11/08 03:16:39;;;;;;;4.43;1.90;;;;;;;15.24;59.96;100774.50;4952677;28;120739;-68
2022/11/08 03:19:06;;;;;;;4.95;1.70;;;;;;;15.22;60.09;100763.09;4948727;28;119280;-68
2022/11/08 03:21:35;;;;;;;6.85;1.92;;;;;;;15.21;59.92;100764.03;4946801;28;123567;-68
2022/11/08 03:24:03;;;;;;;4.57;1.90;;;;;;;15.19;59.94;100755.28;4947021;28;124385;-68
2022/11/08 03:26:31;;;;;;;7.47;1.90;;;;;;;15.16;60.01;100755.47;4950970;28;119503;-68
2022/11/08 03:28:58;;;;;;;7.03;1.92;;;;;;;15.14;59.79;100752.91;4950884;28;119644;-68
2022/11/08 03:31:25;;;;;;;5.65;1.70;;;;;;;15.11;59.82;100752.25;4948705;28;123829;-68
2022/11/08 03:33:52;;;;;;;8.95;2.20;;;;;;;15.09;59.82;100743.50;4949445;28;123593;-68
2022/11/08 03:36:19;;;;;;;5.35;1.67;;;;;;;15.06;59.82;100738.34;4947487;28;119450;-68
2022/11/08 03:38:46;;;;;;;10.02;2.00;;;;;;;15.03;59.94;100728.75;4949148;28;120870;-68
2022/11/08 03:41:13;;;;;;;4.47;1.92;;;;;;;15.02;59.81;100726.19;4948958;28;124730;-68
2022/11/08 03:43:40;;;;;;;4.60;1.80;;;;;;;14.98;59.96;100726.38;4949707;28;125413;-68
2022/11/08 03:46:07;;;;;;;6.55;1.98;;;;;;;14.95;59.84;100723.91;4947726;28;119166;-67
2022/11/08 03:48:34;;;;;;;4.00;1.80;;;;;;;14.93;59.88;100715.16;4949044;28;118830;-68
2022/11/08 03:51:01;;;;;;;7.57;2.10;;;;;;;14.92;59.92;100721.44;4961717;28;124306;-68
2022/11/08 03:53:28;;;;;;;7.05;2.10;;;;;;;14.91;60.02;100714.41;4954442;28;124809;-68
2022/11/08 03:55:58;;;;;;;7.10;1.83;;;;;;;14.89;59.93;100705.63;4948897;28;119050;-68
2022/11/08 03:58:25;;;;;;;7.57;2.00;;;;;;;14.88;59.92;100703.94;4946988;28;119827;-68
2022/11/08 04:00:52;;;;;;;6.80;1.80;;;;;;;14.87;59.75;100691.56;4948726;28;124538;-69
2022/11/08 04:03:19;;;;;;;5.97;1.80;;;;;;;14.86;59.86;100689.88;4949709;28;123683;-69
2022/11/08 04:05:46;;;;;;;4.18;1.70;;;;;;;14.84;59.79;100681.09;4948055;28;122043;-68
2022/11/08 04:08:13;;;;;;;4.18;1.83;;;;;;;14.83;59.75;100682.06;4949100;28;120133;-68
2022/11/08 04:10:41;;;;;;;8.57;2.17;;;;;;;14.81;59.72;100670.63;4949098;28;124486;-68
2022/11/08 04:15:56;;;;;;;2.25;1.30;;;;;;;14.77;59.72;100663.81;4949548;28;119719;-68
2022/11/08 04:21:17;;;;;;;;;;;;;;;14.71;59.63;100664.19;4945079;28;124032;-68
2022/11/08 04:23:46;;;;;;;4.05;1.27;;;;;;;14.72;59.56;100660.56;4946397;28;124104;-68
2022/11/08 04:26:13;;;;;;;4.20;1.60;;;;;;;14.70;59.71;100652.66;4950211;28;119869;-68
2022/11/08 04:28:41;;;;;;;8.10;2.00;;;;;;;14.70;59.68;100646.50;4948348;28;118638;-68
2022/11/08 04:31:14;;;;;;;4.97;1.45;;;;;;;14.69;59.68;100650.09;4962626;28;123020;-68
2022/11/08 04:33:41;;;;;;;5.45;1.67;;;;;;;14.67;59.55;100636.00;4948269;28;123711;-68
2022/11/08 04:36:14;;;;;;;5.65;1.60;;;;;;;14.67;59.68;100633.34;4947627;28;119022;-68
2022/11/08 04:38:42;;;;;;;4.72;1.80;;;;;;;14.65;59.51;100637.94;4947127;28;118666;-68
2022/11/08 04:41:11;;;;;;;4.50;1.65;;;;;;;14.67;59.59;100641.34;4949890;28;123805;-68
2022/11/08 04:43:38;;;;;;;4.88;1.50;;;;;;;14.66;59.60;100632.50;4954872;28;123551;-68
2022/11/08 04:46:11;;;;;;;3.05;1.55;;;;;;;14.67;59.59;100636.00;4945218;28;119134;-68
2022/11/08 04:48:39;;;;;;;4.95;1.77;;;;;;;14.69;59.46;100631.44;4947028;28;119198;-68
2022/11/08 04:51:13;;;;;;;6.47;1.90;;;;;;;14.69;59.50;100618.09;4945646;28;123187;-68
2022/11/08 04:53:40;;;;;;;6.10;2.03;;;;;;;14.70;59.37;100614.50;4950563;28;124081;-68
2022/11/08 04:56:09;;;;;;;6.45;1.80;;;;;;;14.69;59.43;100607.44;4953299;28;120035;-68
2022/11/08 04:58:39;;;;;;;5.65;1.88;;;;;;;14.70;59.41;100603.84;4950451;28;119901;-69
2022/11/08 05:01:08;;;;;;;3.97;1.80;;;;;;;14.71;59.32;100605.53;4947695;28;124232;-68
2022/11/08 05:03:35;;;;;;;4.38;1.48;;;;;;;14.72;59.29;100602.78;4950692;28;123194;-68
2022/11/08 05:06:04;;;;;;;5.00;1.90;;;;;;;14.72;59.27;100596.59;4952538;28;119095;-68
2022/11/08 05:08:32;;;;;;;7.07;1.80;;;;;;;14.73;59.29;100588.50;4950105;28;119243;-68
2022/11/08 05:11:04;;;;;;;3.03;1.55;;;;;;;14.73;59.12;100592.94;4955095;28;124044;-68
2022/11/08 05:13:32;;;;;;;3.78;1.60;;;;;;;14.74;59.09;100589.34;4966598;28;122864;-68
2022/11/08 05:16:04;;;;;;;5.18;1.60;;;;;;;14.74;59.11;100579.53;4967180;28;119604;-68
2022/11/08 05:18:32;;;;;;;4.55;1.58;;;;;;;14.74;58.99;100573.34;4950986;28;119224;-68
2022/11/08 05:23:48;;;;;;;6.18;1.83;;;;;;;14.75;58.91;100553.75;4953131;28;123916;-68
2022/11/08 05:26:17;;;;;;;5.35;1.50;;;;;;;14.76;59.17;100560.75;4936238;28;118655;-68
2022/11/08 05:28:44;;;;;;;5.35;1.60;;;;;;;14.76;58.96;100555.44;4952198;28;118649;-68
2022/11/08 05:31:12;;;;;;;4.45;1.60;;;;;;;14.76;59.02;100550.09;4951016;28;123867;-68
2022/11/08 05:33:40;;;;;;;7.25;1.73;;;;;;;14.77;58.92;100549.16;4957180;28;123487;-69
2022/11/08 05:36:10;;;;;;;3.67;1.70;;;;;;;14.77;58.83;100541.16;4949599;28;119545;-68
2022/11/08 05:38:38;;;;;;;4.78;1.30;;;;;;;14.77;58.88;100544.66;4950665;28;118961;-68
2022/11/08 05:41:11;;;;;;;3.42;1.50;;;;;;;14.78;58.93;100549.03;4949130;28;123862;-68
2022/11/08 05:43:39;;;;;;;7.88;2.13;;;;;;;14.80;58.88;100546.25;4951824;28;123988;-68
2022/11/08 05:46:06;;;;;;;3.33;1.70;;;;;;;14.80;58.76;100540.94;4947093;28;120872;-68
2022/11/08 05:48:34;;;;;;;5.90;1.63;;;;;;;14.81;58.82;100536.47;4953842;28;121234;-68
2022/11/08 05:51:01;;;;;;;5.90;1.63;;;;;;;14.82;58.70;100539.00;4951990;28;123196;-68
2022/11/08 05:53:28;;;;;;;6.40;1.90;;;;;;;14.81;58.73;100542.66;4951178;28;123959;-68
2022/11/08 05:55:59;;;;;;;3.40;1.52;;;;;;;14.81;58.72;100525.81;4953101;28;119654;-68
2022/11/08 05:58:28;;;;;;;3.53;1.70;;;;;;;14.80;58.80;100524.94;4935956;28;117790;-68
2022/11/08 06:00:59;;;;;;;4.72;1.73;;;;;;;14.79;58.70;100531.25;4965253;28;123845;-68
2022/11/08 06:03:27;;;;;;;4.03;1.52;;;;;;;14.78;58.67;100532.19;4948065;28;123341;-68
2022/11/08 06:05:55;;;;;;;5.75;1.98;;;;;;;14.79;58.66;100533.91;4949062;28;119170;-68
2022/11/08 06:08:22;;;;;;;3.60;1.70;;;;;;;14.78;58.57;100532.19;4951594;28;119190;-68
2022/11/08 06:10:49;;;;;;;6.28;1.75;;;;;;;14.77;58.66;100530.50;4954249;28;124311;-68
2022/11/08 06:13:16;;;;;;;5.35;1.30;;;;;;;14.77;58.51;100530.50;4954466;28;123817;-68
2022/11/08 06:15:43;;;;;;;4.20;1.60;;;;;;;14.78;58.50;100542.84;4950129;28;120135;-68
2022/11/08 06:18:10;;;;;;;5.78;1.80;;;;;;;14.77;58.46;100543.81;4954505;28;118902;-68
2022/11/08 06:20:37;;;;;;;5.25;1.70;;;;;;;14.76;58.59;100534.09;4952437;28;124229;-68
2022/11/08 06:23:04;;;;;;;4.57;1.80;;;;;;;14.76;58.38;100534.09;4947896;28;122951;-67
2022/11/08 06:25:31;;;;;;;5.05;1.80;;;;;;;14.75;58.53;100537.75;4951097;28;119580;-68
2022/11/08 06:27:59;;;;;;;4.63;1.60;;;;;;;14.76;58.45;100536.78;4951457;28;118064;-68
2022/11/08 06:30:26;;;;;;;3.17;1.55;;;;;;;14.76;58.44;100539.44;4962480;28;123867;-68
2022/11/08 06:32:53;;;;;;;5.70;1.88;;;;;;;14.75;58.31;100527.09;4950094;28;124308;-68
2022/11/08 06:35:20;;;;;;;4.30;1.80;;;;;;;14.75;58.28;100532.41;4962647;28;120265;-68
2022/11/08 06:37:47;;;;;;;4.03;1.73;;;;;;;14.74;58.47;100536.03;4951274;28;119893;-68
2022/11/08 06:40:15;;;;;;;3.80;1.73;;;;;;;14.74;58.41;100534.22;4946416;28;123883;-68
2022/11/08 06:42:42;;;;;;;3.53;1.52;;;;;;;14.74;58.33;100533.34;4930660;28;123352;-69
2022/11/08 06:45:09;;;;;;;4.30;1.80;;;;;;;14.73;58.19;100534.31;4956746;28;119251;-68
2022/11/08 06:47:36;;;;;;;4.30;1.60;;;;;;;14.73;58.35;100534.31;4951089;28;119165;-68
2022/11/08 06:50:03;;;;;;;4.20;1.88;;;;;;;14.73;58.19;100547.63;4951967;28;124170;-68
2022/11/08 06:52:30;;;;;;;9.02;2.13;;;;;;;14.73;58.29;100534.31;4954468;28;123927;-68
2022/11/08 06:54:57;;;;;;;4.80;1.80;;;;;;;14.73;58.11;100534.31;4950836;28;119464;-68
2022/11/08 06:57:24;;;;;;;3.58;1.65;;;;;;;14.72;58.15;100548.59;4951971;28;119269;-68
2022/11/08 06:59:51;;;;;;;4.90;1.77;;;;;;;14.72;58.27;100537.94;4949515;28;123960;-68
2022/11/08 07:02:19;;;;;;;5.85;1.67;;;;;;;14.73;58.22;100542.31;4951922;28;124031;-68
2022/11/08 07:04:46;;;;;;;5.13;1.83;;;;;;;14.72;58.05;100532.59;4962631;28;118848;-68
2022/11/08 07:07:13;;;;;;;3.65;1.80;;;;;;;14.72;58.16;100532.59;4949953;28;119068;-69
2022/11/08 07:09:40;;;;;;;6.53;2.30;;;;;;;14.71;57.98;100530.88;4951535;28;124774;-68
2022/11/08 07:12:08;;;;;;;4.35;1.75;;;;;;;14.70;58.08;100529.19;4962626;28;122404;-68
2022/11/08 07:14:35;;;;;;;3.80;2.05;;;;;;;14.70;58.01;100537.19;4948021;28;119573;-68
2022/11/08 07:17:03;;;;;;;6.45;1.73;;;;;;;14.70;58.06;100539.84;4949348;28;118815;-68
2022/11/08 07:19:30;;;;;;;3.63;1.65;;;;;;;14.70;58.13;100529.19;4949959;28;124167;-68
2022/11/08 07:21:57;;;;;;;6.68;1.90;;;;;;;14.70;58.04;100529.19;4946786;28;123227;-69
2022/11/08 07:24:24;;;;;;;5.78;1.75;;;;;;;14.72;57.93;100540.59;4932389;28;119283;-69
2022/11/08 07:26:50;;;;;;;5.85;1.80;;;;;;;14.73;58.03;100550.28;4949776;28;120248;-69
2022/11/08 07:29:17;;;;;;;4.22;1.75;;;;;;;14.75;58.03;100548.41;4948809;28;124358;-68
2022/11/08 07:31:46;;;;;;;4.43;1.73;;;;;;;14.75;58.10;100543.09;4948679;28;123735;-69
2022/11/08 07:34:13;;;;;;;5.63;1.77;;;;;;;14.77;57.89;100546.50;4951411;28;119324;-69
2022/11/08 07:36:40;;;;;;;3.38;1.73;;;;;;;14.78;57.92;100537.53;4946877;28;119335;-69
2022/11/08 07:39:07;;;;;;;6.55;2.10;;;;;;;14.81;57.91;100532.00;4949937;28;124080;-69
2022/11/08 07:41:34;;;;;;;4.05;1.80;;;;;;;14.83;57.86;100546.06;4950799;28;124117;-69
2022/11/08 07:44:01;;;;;;;4.18;1.55;;;;;;;14.85;57.94;100535.31;4950571;28;119266;-68
2022/11/08 07:46:28;;;;;;;2.95;1.85;;;;;;;14.86;57.89;100540.53;4944446;28;119961;-69
2022/11/08 07:48:55;;;;;;;5.32;1.90;;;;;;;14.90;57.84;100558.03;4947135;28;124097;-69
2022/11/08 07:51:22;;;;;;;4.70;1.75;;;;;;;14.92;57.76;100545.44;4971633;28;122600;-68
2022/11/08 07:53:49;;;;;;;3.75;1.98;;;;;;;14.95;57.71;100537.22;4956826;28;119227;-69
2022/11/08 07:56:16;;;;;;;4.35;1.85;;;;;;;14.98;57.66;100539.69;4969327;28;117847;-69
2022/11/08 07:58:43;;;;;;;4.82;2.00;;;;;;;15.00;57.72;100531.59;4966602;28;123917;-69
2022/11/08 08:01:10;;;;;;;4.28;2.03;;;;;;;15.04;57.80;100542.91;4961528;28;123978;-69
2022/11/08 08:03:38;;;;;;;3.75;1.88;;;;;;;15.07;57.67;100537.34;4958015;28;119588;-69
2022/11/08 08:06:05;;;;;;;4.55;2.10;;;;;;;15.10;57.59;100542.47;4962606;28;118832;-68
2022/11/08 08:08:32;;;;;;;4.30;1.67;;;;;;;15.13;57.54;100536.94;4960520;28;124140;-69
2022/11/08 08:10:59;;;;;;;5.75;1.80;;;;;;;15.15;57.50;100535.03;4953355;28;123197;-69
2022/11/08 08:13:27;;;;;;;7.18;1.85;;;;;;;15.19;57.46;100531.16;4966115;28;120672;-69
2022/11/08 08:15:59;;;;;;;3.55;1.70;;;;;;;15.21;57.37;100521.25;4966422;28;120721;-68
2022/11/08 08:18:28;;;;;;;3.47;1.80;;;;;;;15.23;57.36;100522.00;4947498;28;124522;-69
2022/11/08 08:20:55;;;;;;;2.30;1.75;;;;;;;15.26;57.23;100521.78;4954230;28;125363;-69
2022/11/08 08:23:23;;;;;;;4.50;1.83;;;;;;;15.28;57.40;100519.84;4966182;28;119680;-69
2022/11/08 08:25:50;;;;;;;3.30;1.73;;;;;;;15.31;57.18;100535.66;4965438;28;119355;-69
2022/11/08 08:28:17;;;;;;;4.28;2.28;;;;;;;15.35;57.15;100529.16;4965911;28;124078;-69
2022/11/08 08:30:44;;;;;;;5.57;1.70;;;;;;;15.40;57.12;100527.97;4965753;28;124254;-69
2022/11/08 08:33:13;;;;;;;4.47;1.77;;;;;;;15.44;57.25;100529.44;4959523;28;119073;-68
2022/11/08 08:36:00;;;;;;;6.53;1.75;;;;;;;15.50;56.82;100539.69;4945683;28;118411;-69
2022/11/08 08:38:29;;;;;;;3.90;1.92;;;;;;;15.56;56.77;100544.63;4961448;28;124012;-68
2022/11/08 08:40:56;;;;;;;4.65;1.92;;;;;;;15.61;56.68;100550.47;4955106;28;123627;-69
2022/11/08 08:43:23;;;;;;;5.07;2.00;;;;;;;15.66;56.52;100540.31;4954981;28;120049;-68
2022/11/08 08:45:50;;;;;;;4.20;1.60;;;;;;;15.71;56.51;100551.53;4956579;28;118864;-69
2022/11/08 08:48:17;;;;;;;4.07;2.10;;;;;;;15.77;56.58;100544.94;4953487;28;124192;-67
2022/11/08 08:50:45;;;;;;;3.47;1.90;;;;;;;15.83;56.59;100556.97;4958450;28;123896;-68
2022/11/08 08:53:12;;;;;;;3.15;1.60;;;;;;;15.88;56.17;100544.13;4943342;28;119032;-69
2022/11/08 08:55:40;;;;;;;5.13;1.80;;;;;;;15.93;55.88;100552.69;4962139;28;118981;-67
2022/11/08 08:58:09;;;;;;;3.78;1.60;;;;;;;15.98;55.76;100553.19;4959415;28;124044;-67
2022/11/08 09:00:36;;;;;;;3.67;1.60;;;;;;;16.04;55.78;100554.56;4957254;28;124207;-68
2022/11/08 09:03:23;;;;;;;5.03;1.70;;;;;;;16.10;55.66;100546.94;4961298;28;119845;-67
2022/11/08 09:05:50;;;;;;;3.63;1.55;;;;;;;16.17;55.58;100543.84;4953263;28;119666;-68
2022/11/08 09:08:17;;;;;;;3.85;1.70;;;;;;;16.23;55.47;100554.09;4961912;28;124703;-69
2022/11/08 09:10:45;;;;;;;3.38;1.60;;;;;;;16.26;55.33;100548.53;4959750;28;123732;-69
2022/11/08 09:13:12;;;;;;;3.42;1.65;;;;;;;16.32;55.24;100548.06;4962150;28;119539;-68
2022/11/08 09:15:40;;;;;;;3.25;1.60;;;;;;;16.37;55.08;100535.22;4950193;28;119132;-68
2022/11/08 09:18:08;;;;;;;3.53;1.30;;;;;;;16.42;54.86;100527.69;4963097;28;125102;-68
2022/11/08 09:20:35;;;;;;;3.40;1.58;;;;;;;16.47;54.68;100530.88;4951729;28;124206;-67
2022/11/08 09:23:02;;;;;;;3.58;1.70;;;;;;;16.49;54.68;100534.28;4973427;28;118786;-67
2022/11/08 09:25:30;;;;;;;3.53;1.55;;;;;;;16.54;54.59;100529.47;4960343;28;118964;-68
2022/11/08 09:27:57;;;;;;;3.67;1.40;;;;;;;16.59;54.44;100522.91;4958981;28;124518;-68
2022/11/08 09:30:25;;;;;;;3.03;1.73;;;;;;;16.61;54.38;100499.56;4962777;28;122810;-68
2022/11/08 09:32:52;;;;;;;3.92;1.70;;;;;;;16.65;54.23;100506.38;4953680;28;120054;-68
2022/11/08 09:35:27;;;;;;;3.35;1.60;;;;;;;16.68;54.17;100515.03;4961475;28;119623;-68
2022/11/08 09:37:55;;;;;;;3.00;1.67;;;;;;;16.71;54.11;100516.63;4958115;28;123840;-69
2022/11/08 09:40:30;;;;;;;3.15;1.75;;;;;;;16.75;54.07;100512.75;4956615;28;123784;-68
2022/11/08 09:43:30;;;;;;;2.78;1.35;;;;;;;16.79;53.99;100524.09;4954299;28;119903;-68
2022/11/08 09:45:57;;;;;;;2.75;1.55;;;;;;;16.82;54.08;100524.72;4966000;28;118915;-68
2022/11/08 09:48:35;;;;;;;4.88;1.58;;;;;;;16.85;54.07;100511.09;4961953;28;123889;-68
2022/11/08 09:51:08;;;;;;;2.40;1.40;;;;;;;16.90;53.82;100503.59;4966830;28;122280;-69
2022/11/08 09:53:52;;;;;;;3.17;1.48;;;;;;;16.95;53.79;100507.72;4966901;28;120793;-68
2022/11/08 09:56:31;;;;;;;3.75;1.85;;;;;;;17.00;53.66;100505.56;4968332;28;119715;-68
2022/11/08 09:59:28;;;;;;;5.53;1.70;;;;;;;17.03;53.60;100516.03;4967465;28;124109;-68
2022/11/08 10:01:55;;;;;;;3.10;1.48;;;;;;;17.07;53.50;100512.13;4965930;28;124169;-68
2022/11/08 10:04:28;;;;;;;6.18;1.70;;;;;;;17.11;53.45;100518.94;4968511;28;119144;-68
2022/11/08 10:07:09;;;;;;;5.78;1.60;;;;;;;17.16;53.28;100511.44;4955948;28;118744;-68
2022/11/08 10:09:46;;;;;;;2.75;1.60;;;;;;;17.21;53.27;100509.22;4948928;28;124897;-68
2022/11/08 10:12:30;;;;;;;5.07;1.60;;;;;;;17.26;53.22;100517.75;4961068;28;124387;-68
2022/11/08 10:15:22;;;;;;;3.63;1.90;;;;;;;17.34;53.31;100524.31;4945419;28;119388;-68
2022/11/08 10:18:11;;;;;;;4.40;1.70;;;;;;;17.40;52.99;100529.19;4963169;28;118733;-68
2022/11/08 10:21:06;;;;;;;4.82;1.58;;;;;;;17.46;53.18;100528.69;4958514;28;123739;-68
2022/11/08 10:23:55;;;;;;;4.20;1.42;;;;;;;17.57;53.09;100536.72;4956157;28;124483;-68
2022/11/08 10:26:32;;;;;;;3.92;1.50;;;;;;;17.65;52.93;100534.31;4979855;28;119210;-68
2022/11/08 10:29:06;;;;;;;3.58;1.40;;;;;;;17.75;52.69;100520.19;4958920;28;119082;-68
2022/11/08 10:31:36;;;;;;;2.53;1.38;;;;;;;17.85;52.74;100523.84;4962111;28;124050;-68
2022/11/08 10:34:13;;;;;;;4.35;1.60;;;;;;;17.96;52.70;100529.19;4962387;28;123493;-67
2022/11/08 10:36:44;;;;;;;4.45;1.35;;;;;;;18.06;52.35;100527.47;4958232;28;119579;-68
2022/11/08 10:39:14;;;;;;;3.55;1.40;;;;;;;18.14;52.22;100523.28;4965253;28;119174;-68
2022/11/08 10:42:06;;;;;;;2.55;1.33;;;;;;;18.21;52.30;100522.66;4959891;28;125393;-68
2022/11/08 10:44:34;;;;;;;2.78;1.27;;;;;;;18.31;52.17;100541.53;4964287;28;123616;-69
2022/11/08 10:47:16;;;;;;;4.95;1.67;;;;;;;18.37;51.63;100534.81;4956730;28;120279;-68
2022/11/08 10:49:43;;;;;;;3.15;1.30;;;;;;;18.41;51.63;100526.38;4976689;28;119729;-69
2022/11/08 10:52:10;;;;;;;3.85;1.52;;;;;;;18.46;51.48;100529.53;4966598;28;124633;-68
2022/11/08 10:54:51;;;;;;;3.58;1.23;;;;;;;18.51;51.25;100530.97;4956219;28;125200;-68
2022/11/08 10:57:30;;;;;;;4.60;1.40;;;;;;;18.55;51.26;100521.69;4960493;28;120422;-68
2022/11/08 11:00:18;;;;;;;3.20;1.20;;;;;;;18.58;51.14;100529.50;4966005;28;119055;-68
2022/11/08 11:02:50;;;;;;;3.28;1.30;;;;;;;18.61;50.62;100542.63;4976398;28;124104;-68
2022/11/08 11:05:17;;;;;;;5.28;1.50;;;;;;;18.63;50.69;100536.19;4964399;28;123064;-68
2022/11/08 11:07:57;;;;;;;2.70;1.30;;;;;;;18.64;50.46;100526.28;4962888;28;118158;-68
2022/11/08 11:10:35;;;;;;;5.10;1.55;;;;;;;18.66;50.52;100518.97;4964582;28;117652;-68
2022/11/08 11:13:17;;;;;;;3.03;1.30;;;;;;;18.69;50.67;100534.81;4965140;28;125306;-68
2022/11/08 11:16:06;;;;;;;2.35;1.08;;;;;;;18.71;50.19;100537.38;4959074;28;123427;-68
2022/11/08 11:18:45;;;;;;;4.03;1.40;;;;;;;18.70;50.31;100536.50;4962331;28;119611;-69
2022/11/08 11:21:16;;;;;;;4.22;1.40;;;;;;;18.72;50.22;100533.69;4963698;28;119037;-68
2022/11/08 11:23:51;;;;;;;4.65;1.33;;;;;;;18.74;50.36;100532.59;4960451;28;122955;-68
2022/11/08 11:26:30;;;;;;;7.10;1.63;;;;;;;18.77;50.27;100516.22;4952954;28;124521;-68
2022/11/08 11:29:04;;;;;;;4.93;1.20;;;;;;;18.79;50.32;100514.25;4960207;28;119888;-68
2022/11/08 11:31:34;;;;;;;2.92;1.33;;;;;;;18.83;50.14;100510.34;4962547;28;118928;-68
2022/11/08 11:34:16;;;;;;;3.80;1.30;;;;;;;18.85;50.32;100508.44;4952193;28;124288;-68
2022/11/08 11:36:52;;;;;;;3.25;1.30;;;;;;;18.89;49.98;100497.41;4953393;28;126926;-68
2022/11/08 11:39:34;;;;;;;4.00;1.42;;;;;;;18.91;50.23;100495.44;4963876;28;119510;-68
2022/11/08 11:42:34;;;;;;;4.57;1.40;;;;;;;18.94;50.17;100479.09;4952565;28;120262;-69
2022/11/08 11:45:20;;;;;;;3.80;1.38;;;;;;;18.98;50.11;100469.78;4958283;28;123814;-68
2022/11/08 11:47:54;;;;;;;3.47;1.23;;;;;;;18.99;49.47;100460.75;4974883;28;122640;-68